sensor_id;sensor_type;location;lat;lon;timestamp;pressure;altitude;pressure_sealevel;temperature;humidity
17781;BME280;8498;52.516;13.790;2023-12-14T00:05:19;100056.97;;;5.79;100.00
17781;BME280;8498;52.516;13.790;2023-12-14T00:10:41;100070.06;;;5.81;100.00
17781;BME280;8498;52.516;13.790;2023-12-14T00:16:04;100074.81;;;5.74;100.00
17781;BME280;8498;52.516;13.790;2023-12-14T00:21:27;100077.56;;;5.57;100.00
17781;BME280;8498;52.516;13.790;2023-12-14T00:26:49;100088.13;;;5.41;100.00
17781;BME280;8498;52.516;13.790;2023-12-14T00:32:12;100092.72;;;5.38;100.00
17781;BME280;8498;52.516;13.790;2023-12-14T00:37:34;100101.72;;;5.34;100.00
17781;BME280;8498;52.516;13.790;2023-12-14T00:42:57;100113.81;;;5.38;100.00
17781;BME280;8498;52.516;13.790;2023-12-14T00:48:19;100115.66;;;5.36;100.00
17781;BME280;8498;52.516;13.790;2023-12-14T00:53:41;100134.09;;;5.36;100.00
17781;BME280;8498;52.516;13.790;2023-12-14T00:59:04;100142.41;;;5.44;100.00
17781;BME280;8498;52.516;13.790;2023-12-14T01:04:26;100136.56;;;5.39;100.00
17781;BME280;8498;52.516;13.790;2023-12-14T01:09:49;100146.66;;;5.31;100.00
17781;BME280;8498;52.516;13.790;2023-12-14T01:15:11;100161.72;;;5.29;100.00
17781;BME280;8498;52.516;13.790;2023-12-14T01:20:34;100165.72;;;5.36;100.00
17781;BME280;8498;52.516;13.790;2023-12-14T01:25:56;100178.88;;;5.36;100.00
17781;BME280;8498;52.516;13.790;2023-12-14T01:31:18;100180.03;;;5.14;100.00
17781;BME280;8498;52.516;13.790;2023-12-14T01:36:43;100193.78;;;5.20;100.00
17781;BME280;8498;52.516;13.790;2023-12-14T01:42:05;100202.31;;;5.25;100.00
17781;BME280;8498;52.516;13.790;2023-12-14T01:47:27;100211.13;;;5.08;100.00
17781;BME280;8498;52.516;13.790;2023-12-14T01:52:50;100211.13;;;5.08;100.00
17781;BME280;8498;52.516;13.790;2023-12-14T01:58:13;100221.72;;;5.06;100.00
17781;BME280;8498;52.516;13.790;2023-12-14T02:03:35;100221.31;;;5.14;100.00
17781;BME280;8498;52.516;13.790;2023-12-14T02:08:58;100237.09;;;5.14;100.00
17781;BME280;8498;52.516;13.790;2023-12-14T02:14:22;100236.88;;;5.19;100.00
17781;BME280;8498;52.516;13.790;2023-12-14T02:19:45;100237.97;;;5.14;100.00
17781;BME280;8498;52.516;13.790;2023-12-14T02:25:08;100238.06;;;4.96;100.00
17781;BME280;8498;52.516;13.790;2023-12-14T02:30:30;100237.44;;;5.08;100.00
17781;BME280;8498;52.516;13.790;2023-12-14T02:35:53;100238.28;;;5.08;100.00
17781;BME280;8498;52.516;13.790;2023-12-14T02:41:15;100241.66;;;5.10;100.00
17781;BME280;8498;52.516;13.790;2023-12-14T02:46:38;100242.84;;;5.05;100.00
17781;BME280;8498;52.516;13.790;2023-12-14T02:52:00;100250.06;;;5.01;100.00
17781;BME280;8498;52.516;13.790;2023-12-14T02:57:23;100247.41;;;5.01;100.00
17781;BME280;8498;52.516;13.790;2023-12-14T03:02:46;100256.09;;;5.03;100.00
17781;BME280;8498;52.516;13.790;2023-12-14T03:08:08;100268.34;;;5.04;100.00
17781;BME280;8498;52.516;13.790;2023-12-14T03:13:31;100274.66;;;5.00;100.00
17781;BME280;8498;52.516;13.790;2023-12-14T03:18:53;100275.72;;;4.98;100.00
17781;BME280;8498;52.516;13.790;2023-12-14T03:24:16;100288.16;;;4.94;100.00
17781;BME280;8498;52.516;13.790;2023-12-14T03:29:39;100292.94;;;5.03;100.00
17781;BME280;8498;52.516;13.790;2023-12-14T03:35:01;100313.16;;;5.03;100.00
17781;BME280;8498;52.516;13.790;2023-12-14T03:40:24;100325.91;;;5.10;100.00
17781;BME280;8498;52.516;13.790;2023-12-14T03:45:46;100328.88;;;5.04;100.00
17781;BME280;8498;52.516;13.790;2023-12-14T03:51:09;100335.69;;;5.08;100.00
17781;BME280;8498;52.516;13.790;2023-12-14T03:56:31;100336.63;;;5.07;100.00
17781;BME280;8498;52.516;13.790;2023-12-14T04:01:54;100339.56;;;5.01;100.00
17781;BME280;8498;52.516;13.790;2023-12-14T04:07:16;100347.38;;;5.03;100.00
17781;BME280;8498;52.516;13.790;2023-12-14T04:12:39;100352.44;;;5.07;100.00
17781;BME280;8498;52.516;13.790;2023-12-14T04:18:02;100360.47;;;5.04;100.00
17781;BME280;8498;52.516;13.790;2023-12-14T04:23:25;100360.63;;;5.01;100.00
17781;BME280;8498;52.516;13.790;2023-12-14T04:28:49;100377.03;;;5.06;100.00
17781;BME280;8498;52.516;13.790;2023-12-14T04:34:12;100376.47;;;5.00;100.00
17781;BME280;8498;52.516;13.790;2023-12-14T04:39:37;100389.75;;;4.98;100.00
17781;BME280;8498;52.516;13.790;2023-12-14T04:45:01;100399.09;;;5.04;100.00
17781;BME280;8498;52.516;13.790;2023-12-14T04:50:24;100421.88;;;5.05;100.00
17781;BME280;8498;52.516;13.790;2023-12-14T04:55:47;100421.63;;;5.09;100.00
17781;BME280;8498;52.516;13.790;2023-12-14T05:01:09;100430.25;;;5.13;100.00
17781;BME280;8498;52.516;13.790;2023-12-14T05:06:32;100424.91;;;5.14;100.00
17781;BME280;8498;52.516;13.790;2023-12-14T05:11:56;100427.53;;;5.14;100.00
17781;BME280;8498;52.516;13.790;2023-12-14T05:17:21;100443.66;;;4.90;100.00
17781;BME280;8498;52.516;13.790;2023-12-14T05:22:44;100452.69;;;5.03;100.00
17781;BME280;8498;52.516;13.790;2023-12-14T05:28:06;100461.22;;;5.08;100.00
17781;BME280;8498;52.516;13.790;2023-12-14T05:33:29;100465.47;;;5.10;100.00
17781;BME280;8498;52.516;13.790;2023-12-14T05:38:53;100480.41;;;5.10;100.00
17781;BME280;8498;52.516;13.790;2023-12-14T05:44:16;100486.91;;;5.03;100.00
17781;BME280;8498;52.516;13.790;2023-12-14T05:49:42;100508.81;;;5.03;100.00
17781;BME280;8498;52.516;13.790;2023-12-14T05:55:07;100524.63;;;5.03;100.00
17781;BME280;8498;52.516;13.790;2023-12-14T06:00:30;100528.03;;;5.05;100.00
17781;BME280;8498;52.516;13.790;2023-12-14T06:05:53;100540.22;;;5.08;100.00
17781;BME280;8498;52.516;13.790;2023-12-14T06:11:16;100556.22;;;5.03;100.00
17781;BME280;8498;52.516;13.790;2023-12-14T06:16:38;100552.66;;;5.04;100.00
17781;BME280;8498;52.516;13.790;2023-12-14T06:22:01;100556.78;;;4.91;100.00
17781;BME280;8498;52.516;13.790;2023-12-14T06:27:23;100556.78;;;4.91;100.00
17781;BME280;8498;52.516;13.790;2023-12-14T06:32:48;100567.97;;;4.96;100.00
17781;BME280;8498;52.516;13.790;2023-12-14T06:38:11;100573.72;;;4.86;100.00
17781;BME280;8498;52.516;13.790;2023-12-14T06:43:33;100576.00;;;4.93;100.00
17781;BME280;8498;52.516;13.790;2023-12-14T06:48:56;100578.69;;;5.10;100.00
17781;BME280;8498;52.516;13.790;2023-12-14T06:54:19;100581.19;;;5.13;100.00
17781;BME280;8498;52.516;13.790;2023-12-14T06:59:41;100590.44;;;5.03;100.00
17781;BME280;8498;52.516;13.790;2023-12-14T07:05:04;100602.44;;;5.09;100.00
17781;BME280;8498;52.516;13.790;2023-12-14T07:10:26;100614.69;;;5.10;100.00
17781;BME280;8498;52.516;13.790;2023-12-14T07:15:49;100638.47;;;5.08;100.00
17781;BME280;8498;52.516;13.790;2023-12-14T07:21:11;100648.66;;;4.97;100.00
17781;BME280;8498;52.516;13.790;2023-12-14T07:26:34;100655.94;;;4.91;100.00
17781;BME280;8498;52.516;13.790;2023-12-14T07:31:57;100664.50;;;4.96;100.00
17781;BME280;8498;52.516;13.790;2023-12-14T07:37:19;100673.44;;;4.92;100.00
17781;BME280;8498;52.516;13.790;2023-12-14T07:42:44;100685.50;;;4.97;100.00
17781;BME280;8498;52.516;13.790;2023-12-14T07:48:06;100683.13;;;4.91;100.00
17781;BME280;8498;52.516;13.790;2023-12-14T07:53:29;100711.03;;;4.95;100.00
17781;BME280;8498;52.516;13.790;2023-12-14T07:58:51;100725.00;;;4.97;100.00
17781;BME280;8498;52.516;13.790;2023-12-14T08:04:14;100723.00;;;5.02;100.00
17781;BME280;8498;52.516;13.790;2023-12-14T08:09:36;100721.56;;;4.95;100.00
17781;BME280;8498;52.516;13.790;2023-12-14T08:14:59;100733.66;;;4.99;100.00
17781;BME280;8498;52.516;13.790;2023-12-14T08:20:22;100749.31;;;5.02;100.00
17781;BME280;8498;52.516;13.790;2023-12-14T08:25:45;100751.03;;;5.03;100.00
17781;BME280;8498;52.516;13.790;2023-12-14T08:31:07;100751.81;;;5.05;100.00
17781;BME280;8498;52.516;13.790;2023-12-14T08:36:32;100753.47;;;5.08;100.00
17781;BME280;8498;52.516;13.790;2023-12-14T08:41:54;100768.66;;;5.01;100.00
17781;BME280;8498;52.516;13.790;2023-12-14T08:47:16;100784.63;;;4.98;100.00
17781;BME280;8498;52.516;13.790;2023-12-14T08:52:39;100804.53;;;5.04;100.00
17781;BME280;8498;52.516;13.790;2023-12-14T08:58:02;100813.81;;;5.12;100.00
17781;BME280;8498;52.516;13.790;2023-12-14T09:03:24;100828.06;;;5.08;100.00
17781;BME280;8498;52.516;13.790;2023-12-14T09:08:49;100841.81;;;5.15;100.00
17781;BME280;8498;52.516;13.790;2023-12-14T09:14:13;100845.03;;;5.22;100.00
17781;BME280;8498;52.516;13.790;2023-12-14T09:19:36;100848.97;;;5.11;100.00
17781;BME280;8498;52.516;13.790;2023-12-14T09:24:58;100856.81;;;5.13;100.00
17781;BME280;8498;52.516;13.790;2023-12-14T09:30:21;100859.50;;;5.11;100.00
17781;BME280;8498;52.516;13.790;2023-12-14T09:35:44;100868.31;;;5.10;100.00
17781;BME280;8498;52.516;13.790;2023-12-14T09:41:06;100868.19;;;5.13;100.00
17781;BME280;8498;52.516;13.790;2023-12-14T09:46:30;100881.03;;;5.01;100.00
17781;BME280;8498;52.516;13.790;2023-12-14T09:51:54;100876.03;;;5.15;100.00
17781;BME280;8498;52.516;13.790;2023-12-14T09:57:18;100891.84;;;5.15;100.00
17781;BME280;8498;52.516;13.790;2023-12-14T10:02:41;100906.72;;;5.16;100.00
17781;BME280;8498;52.516;13.790;2023-12-14T10:08:05;100905.06;;;5.13;100.00
17781;BME280;8498;52.516;13.790;2023-12-14T10:13:46;100920.00;;;5.13;100.00
17781;BME280;8498;52.516;13.790;2023-12-14T10:19:09;100917.72;;;5.05;100.00
17781;BME280;8498;52.516;13.790;2023-12-14T10:24:37;100914.28;;;5.03;100.00
17781;BME280;8498;52.516;13.790;2023-12-14T10:30:06;100927.84;;;5.14;100.00
17781;BME280;8498;52.516;13.790;2023-12-14T10:35:29;100927.84;;;5.14;100.00
17781;BME280;8498;52.516;13.790;2023-12-14T10:40:51;100940.97;;;5.16;100.00
17781;BME280;8498;52.516;13.790;2023-12-14T10:46:16;100946.28;;;5.14;100.00
17781;BME280;8498;52.516;13.790;2023-12-14T10:51:38;100952.47;;;5.13;100.00
17781;BME280;8498;52.516;13.790;2023-12-14T10:57:07;100952.59;;;5.10;100.00
17781;BME280;8498;52.516;13.790;2023-12-14T11:02:38;100957.47;;;5.20;100.00
17781;BME280;8498;52.516;13.790;2023-12-14T11:08:02;100961.06;;;5.19;100.00
17781;BME280;8498;52.516;13.790;2023-12-14T11:13:34;100973.16;;;5.23;100.00
17781;BME280;8498;52.516;13.790;2023-12-14T11:19:33;100969.09;;;5.36;100.00
17781;BME280;8498;52.516;13.790;2023-12-14T11:24:55;100972.91;;;5.29;100.00
17781;BME280;8498;52.516;13.790;2023-12-14T11:30:18;100977.06;;;5.34;100.00
17781;BME280;8498;52.516;13.790;2023-12-14T11:35:41;100992.22;;;5.29;100.00
17781;BME280;8498;52.516;13.790;2023-12-14T11:41:05;100993.03;;;5.30;100.00
17781;BME280;8498;52.516;13.790;2023-12-14T11:46:28;100995.44;;;5.36;100.00
17781;BME280;8498;52.516;13.790;2023-12-14T11:51:55;100997.94;;;5.39;100.00
17781;BME280;8498;52.516;13.790;2023-12-14T11:57:18;101003.41;;;5.34;100.00
17781;BME280;8498;52.516;13.790;2023-12-14T12:02:40;101020.41;;;5.47;100.00
17781;BME280;8498;52.516;13.790;2023-12-14T12:08:03;101028.50;;;5.43;100.00
17781;BME280;8498;52.516;13.790;2023-12-14T12:13:26;101040.09;;;5.39;100.00
17781;BME280;8498;52.516;13.790;2023-12-14T12:18:49;101045.28;;;5.40;100.00
17781;BME280;8498;52.516;13.790;2023-12-14T12:24:15;101051.19;;;5.47;100.00
17781;BME280;8498;52.516;13.790;2023-12-14T12:29:48;101046.41;;;5.35;100.00
17781;BME280;8498;52.516;13.790;2023-12-14T12:35:12;101052.47;;;5.37;100.00
17781;BME280;8498;52.516;13.790;2023-12-14T12:40:36;101063.66;;;5.42;100.00
17781;BME280;8498;52.516;13.790;2023-12-14T12:45:58;101065.38;;;5.43;100.00
17781;BME280;8498;52.516;13.790;2023-12-14T12:51:21;101073.28;;;5.43;100.00
17781;BME280;8498;52.516;13.790;2023-12-14T12:56:44;101086.41;;;5.44;100.00
17781;BME280;8498;52.516;13.790;2023-12-14T13:02:06;101097.00;;;5.43;100.00
17781;BME280;8498;52.516;13.790;2023-12-14T13:07:29;101108.59;;;5.39;100.00
17781;BME280;8498;52.516;13.790;2023-12-14T13:12:51;101103.41;;;5.37;100.00
17781;BME280;8498;52.516;13.790;2023-12-14T13:18:14;101115.66;;;5.38;100.00
17781;BME280;8498;52.516;13.790;2023-12-14T13:23:39;101123.34;;;5.43;100.00
17781;BME280;8498;52.516;13.790;2023-12-14T13:29:01;101141.84;;;5.41;100.00
17781;BME280;8498;52.516;13.790;2023-12-14T13:34:26;101140.06;;;5.42;100.00
17781;BME280;8498;52.516;13.790;2023-12-14T13:39:50;101146.41;;;5.38;100.00
17781;BME280;8498;52.516;13.790;2023-12-14T13:45:12;101153.41;;;5.39;100.00
17781;BME280;8498;52.516;13.790;2023-12-14T13:50:35;101165.88;;;5.34;100.00
17781;BME280;8498;52.516;13.790;2023-12-14T13:55:58;101180.66;;;5.38;100.00
17781;BME280;8498;52.516;13.790;2023-12-14T14:01:21;101186.69;;;5.40;100.00
17781;BME280;8498;52.516;13.790;2023-12-14T14:06:43;101208.53;;;5.43;100.00
17781;BME280;8498;52.516;13.790;2023-12-14T14:12:06;101224.34;;;5.43;100.00
17781;BME280;8498;52.516;13.790;2023-12-14T14:17:29;101246.28;;;5.44;100.00
17781;BME280;8498;52.516;13.790;2023-12-14T14:22:52;101252.47;;;5.43;100.00
17781;BME280;8498;52.516;13.790;2023-12-14T14:28:14;101271.16;;;5.37;100.00
17781;BME280;8498;52.516;13.790;2023-12-14T14:33:37;101270.25;;;5.38;100.00
17781;BME280;8498;52.516;13.790;2023-12-14T14:38:59;101263.63;;;5.26;100.00
17781;BME280;8498;52.516;13.790;2023-12-14T14:44:22;101278.69;;;5.23;100.00
17781;BME280;8498;52.516;13.790;2023-12-14T14:49:45;101292.66;;;5.25;100.00
17781;BME280;8498;52.516;13.790;2023-12-14T14:55:11;101303.22;;;5.25;100.00
17781;BME280;8498;52.516;13.790;2023-12-14T15:00:33;101304.13;;;5.24;100.00
17781;BME280;8498;52.516;13.790;2023-12-14T15:06:01;101306.81;;;5.22;100.00
17781;BME280;8498;52.516;13.790;2023-12-14T15:11:23;101327.19;;;5.17;100.00
17781;BME280;8498;52.516;13.790;2023-12-14T15:16:46;101329.06;;;5.13;100.00
17781;BME280;8498;52.516;13.790;2023-12-14T15:22:09;101334.34;;;5.13;100.00
17781;BME280;8498;52.516;13.790;2023-12-14T15:27:31;101339.81;;;5.07;100.00
17781;BME280;8498;52.516;13.790;2023-12-14T15:32:55;101346.91;;;5.05;100.00
17781;BME280;8498;52.516;13.790;2023-12-14T15:38:18;101351.47;;;5.00;100.00
17781;BME280;8498;52.516;13.790;2023-12-14T15:43:41;101352.38;;;4.99;100.00
17781;BME280;8498;52.516;13.790;2023-12-14T15:49:03;101350.06;;;4.90;100.00
17781;BME280;8498;52.516;13.790;2023-12-14T15:54:26;101376.50;;;4.87;100.00
17781;BME280;8498;52.516;13.790;2023-12-14T15:59:49;101383.91;;;4.76;100.00
17781;BME280;8498;52.516;13.790;2023-12-14T16:05:14;101392.53;;;4.79;100.00
17781;BME280;8498;52.516;13.790;2023-12-14T16:10:39;101403.03;;;4.81;100.00
17781;BME280;8498;52.516;13.790;2023-12-14T16:16:04;101408.19;;;4.84;100.00
17781;BME280;8498;52.516;13.790;2023-12-14T16:21:26;101417.78;;;4.87;100.00
17781;BME280;8498;52.516;13.790;2023-12-14T16:26:49;101419.50;;;4.88;100.00
17781;BME280;8498;52.516;13.790;2023-12-14T16:32:21;101435.28;;;4.88;100.00
17781;BME280;8498;52.516;13.790;2023-12-14T16:37:44;101448.38;;;4.89;100.00
17781;BME280;8498;52.516;13.790;2023-12-14T16:43:06;101453.66;;;4.89;100.00
17781;BME280;8498;52.516;13.790;2023-12-14T16:48:29;101466.09;;;4.84;100.00
17781;BME280;8498;52.516;13.790;2023-12-14T16:53:52;101476.72;;;4.81;100.00
17781;BME280;8498;52.516;13.790;2023-12-14T16:59:14;101478.50;;;4.80;100.00
17781;BME280;8498;52.516;13.790;2023-12-14T17:04:37;101490.78;;;4.80;100.00
17781;BME280;8498;52.516;13.790;2023-12-14T17:09:59;101499.50;;;4.82;100.00
17781;BME280;8498;52.516;13.790;2023-12-14T17:15:22;101511.97;;;4.77;100.00
17781;BME280;8498;52.516;13.790;2023-12-14T17:20:44;101515.50;;;4.76;100.00
17781;BME280;8498;52.516;13.790;2023-12-14T17:26:07;101525.31;;;4.71;100.00
17781;BME280;8498;52.516;13.790;2023-12-14T17:31:29;101531.38;;;4.73;100.00
17781;BME280;8498;52.516;13.790;2023-12-14T17:36:51;101537.84;;;4.63;100.00
17781;BME280;8498;52.516;13.790;2023-12-14T17:42:14;101549.38;;;4.57;100.00
17781;BME280;8498;52.516;13.790;2023-12-14T17:47:41;101559.78;;;4.62;100.00
17781;BME280;8498;52.516;13.790;2023-12-14T17:53:03;101564.00;;;4.67;100.00
17781;BME280;8498;52.516;13.790;2023-12-14T17:58:26;101574.72;;;4.61;100.00
17781;BME280;8498;52.516;13.790;2023-12-14T18:03:48;101577.31;;;4.63;100.00
17781;BME280;8498;52.516;13.790;2023-12-14T18:09:11;101580.22;;;4.54;100.00
17781;BME280;8498;52.516;13.790;2023-12-14T18:14:33;101584.53;;;4.56;100.00
17781;BME280;8498;52.516;13.790;2023-12-14T18:19:55;101589.72;;;4.58;100.00
17781;BME280;8498;52.516;13.790;2023-12-14T18:25:18;101616.16;;;4.55;100.00
17781;BME280;8498;52.516;13.790;2023-12-14T18:30:44;101625.81;;;4.54;100.00
17781;BME280;8498;52.516;13.790;2023-12-14T18:36:07;101637.28;;;4.52;100.00
17781;BME280;8498;52.516;13.790;2023-12-14T18:41:30;101632.09;;;4.49;100.00
17781;BME280;8498;52.516;13.790;2023-12-14T18:46:52;101650.44;;;4.52;100.00
17781;BME280;8498;52.516;13.790;2023-12-14T18:52:15;101660.16;;;4.48;100.00
17781;BME280;8498;52.516;13.790;2023-12-14T18:57:38;101660.16;;;4.48;100.00
17781;BME280;8498;52.516;13.790;2023-12-14T19:03:01;101670.91;;;4.40;100.00
17781;BME280;8498;52.516;13.790;2023-12-14T19:08:27;101693.69;;;4.41;100.00
17781;BME280;8498;52.516;13.790;2023-12-14T19:13:50;101705.94;;;4.42;100.00
17781;BME280;8498;52.516;13.790;2023-12-14T19:19:14;101712.09;;;4.41;100.00
17781;BME280;8498;52.516;13.790;2023-12-14T19:24:38;101720.72;;;4.47;100.00
17781;BME280;8498;52.516;13.790;2023-12-14T19:30:03;101722.53;;;4.46;100.00
17781;BME280;8498;52.516;13.790;2023-12-14T19:35:28;101727.00;;;4.42;100.00
17781;BME280;8498;52.516;13.790;2023-12-14T19:40:51;101741.13;;;4.38;100.00
17781;BME280;8498;52.516;13.790;2023-12-14T19:46:14;101738.69;;;4.31;100.00
17781;BME280;8498;52.516;13.790;2023-12-14T19:51:38;101746.53;;;4.32;100.00
17781;BME280;8498;52.516;13.790;2023-12-14T19:57:01;101751.63;;;4.38;100.00
17781;BME280;8498;52.516;13.790;2023-12-14T20:02:23;101765.63;;;4.40;100.00
17781;BME280;8498;52.516;13.790;2023-12-14T20:07:46;101763.16;;;4.34;100.00
17781;BME280;8498;52.516;13.790;2023-12-14T20:13:09;101771.06;;;4.34;100.00
17781;BME280;8498;52.516;13.790;2023-12-14T20:18:31;101776.31;;;4.34;100.00
17781;BME280;8498;52.516;13.790;2023-12-14T20:23:54;101791.22;;;4.34;100.00
17781;BME280;8498;52.516;13.790;2023-12-14T20:29:16;101789.53;;;4.31;100.00
17781;BME280;8498;52.516;13.790;2023-12-14T20:34:39;101793.97;;;4.29;100.00
17781;BME280;8498;52.516;13.790;2023-12-14T20:40:22;101793.06;;;4.30;100.00
17781;BME280;8498;52.516;13.790;2023-12-14T20:45:44;101802.53;;;4.37;100.00
17781;BME280;8498;52.516;13.790;2023-12-14T20:51:06;101815.50;;;4.45;100.00
17781;BME280;8498;52.516;13.790;2023-12-14T20:56:29;101833.03;;;4.46;100.00
17781;BME280;8498;52.516;13.790;2023-12-14T21:01:51;101842.81;;;4.39;100.00
17781;BME280;8498;52.516;13.790;2023-12-14T21:07:14;101846.84;;;4.17;100.00
17781;BME280;8498;52.516;13.790;2023-12-14T21:12:37;101851.38;;;4.12;100.00
17781;BME280;8498;52.516;13.790;2023-12-14T21:18:01;101852.34;;;4.06;100.00
17781;BME280;8498;52.516;13.790;2023-12-14T21:23:23;101848.78;;;4.09;100.00
17781;BME280;8498;52.516;13.790;2023-12-14T21:28:46;101850.63;;;4.05;100.00
17781;BME280;8498;52.516;13.790;2023-12-14T21:34:08;101861.25;;;4.01;100.00
17781;BME280;8498;52.516;13.790;2023-12-14T21:39:31;101876.97;;;4.04;100.00
17781;BME280;8498;52.516;13.790;2023-12-14T21:44:53;101875.75;;;4.19;100.00
17781;BME280;8498;52.516;13.790;2023-12-14T21:50:15;101874.59;;;4.30;100.00
17781;BME280;8498;52.516;13.790;2023-12-14T21:55:38;101886.88;;;4.31;100.00
17781;BME280;8498;52.516;13.790;2023-12-14T22:01:01;101889.72;;;4.22;100.00
17781;BME280;8498;52.516;13.790;2023-12-14T22:06:24;101886.50;;;4.08;100.00
17781;BME280;8498;52.516;13.790;2023-12-14T22:11:46;101890.16;;;4.02;100.00
17781;BME280;8498;52.516;13.790;2023-12-14T22:17:09;101894.66;;;3.96;100.00
17781;BME280;8498;52.516;13.790;2023-12-14T22:22:32;101907.81;;;3.96;100.00
17781;BME280;8498;52.516;13.790;2023-12-14T22:27:54;101915.78;;;3.93;100.00
17781;BME280;8498;52.516;13.790;2023-12-14T22:33:17;101921.94;;;3.92;100.00
17781;BME280;8498;52.516;13.790;2023-12-14T22:38:39;101914.03;;;3.92;100.00
17781;BME280;8498;52.516;13.790;2023-12-14T22:44:01;101912.41;;;3.85;100.00
17781;BME280;8498;52.516;13.790;2023-12-14T22:49:24;101912.69;;;3.73;100.00
17781;BME280;8498;52.516;13.790;2023-12-14T22:54:46;101923.63;;;3.94;100.00
17781;BME280;8498;52.516;13.790;2023-12-14T23:00:09;101926.88;;;4.05;100.00
17781;BME280;8498;52.516;13.790;2023-12-14T23:05:34;101948.66;;;4.12;100.00
17781;BME280;8498;52.516;13.790;2023-12-14T23:10:56;101954.72;;;4.16;100.00
17781;BME280;8498;52.516;13.790;2023-12-14T23:16:20;101965.19;;;4.17;100.00
17781;BME280;8498;52.516;13.790;2023-12-14T23:21:42;101966.16;;;4.15;100.00
17781;BME280;8498;52.516;13.790;2023-12-14T23:27:04;101976.94;;;4.01;100.00
17781;BME280;8498;52.516;13.790;2023-12-14T23:32:27;101982.31;;;3.95;100.00
17781;BME280;8498;52.516;13.790;2023-12-14T23:37:51;101994.47;;;4.02;100.00
17781;BME280;8498;52.516;13.790;2023-12-14T23:43:14;101999.72;;;4.02;100.00
17781;BME280;8498;52.516;13.790;2023-12-14T23:48:36;102006.91;;;3.94;100.00
17781;BME280;8498;52.516;13.790;2023-12-14T23:53:59;102007.84;;;3.90;100.00
17781;BME280;8498;52.516;13.790;2023-12-14T23:59:22;102007.00;;;3.88;100.00
